Main page
METAR-TAF:

METAR-TAF

Airports :

Dubai, United Arab Emirates

Dubai International Airport

latitude: 25-15-10N, longitude: 055-21-52E, elevation: 8 m

Current weather observation

The report was made 23 minutes ago, at 10:00 UTC
Wind 12 kt from the Northwest
Temperature 39°C
Humidity 21%
Pressure 1003 hPa
Visibility 10 km or more
no clouds below 1500 m and no cumulonimbus

METAR: OMDB 281000Z 31012KT CAVOK 39/13 Q1003 NOSIG

Time: 14:23 (10:23 UTC)

Forecast

The report was made 5 hours and 26 minutes ago, at 04:57 UTC
Forecast valid from 28 at 06 UTC to 29 at 12 UTC
Wind 8 kt from the Southwest
Visibility 10 km or more
no clouds below 1500 m and no cumulonimbus
Becoming
from 28 at 07 UTC to 28 at 09 UTC
Wind 12 kt from the West
Becoming
from 28 at 16 UTC to 28 at 18 UTC
Wind 7 kt from the South
Becoming
from 29 at 07 UTC to 29 at 09 UTC
Wind 12 kt from the West

TAF: OMDB 280457Z 2806/2912 22008KT CAVOK BECMG 2807/2809 28012KT BECMG 2816/2818 18007KT BECMG 2907/2909 28012KT

Weather observations and forecasts of more than 4000 airports (METAR and TAF reports).

The available stations are represented by yellow and red dots on the map.

Hover mouse over dot to see the name of the station.

Then click to see weather observations and forecasts.

To change the map : click on the green buttons with a black cross to zoom in, on the green button with a dash to zoom out, or on the green arrows for adjacent maps.


METAR-TAF: